Morganville, Washington
Current Conditions -  °F | °C
As of 12:53 PM on Wednesday 26 Nov 2014 (Local Time) from KRNT Reporting Station
Overcast Overcast  
Wind Chill: 61°   Ceiling: 5000
Heat Index: 61°   Visibility: 10mi
Dew Point: 52°   Wind: 5mph
Humidity: 72%   Direction: 170°S
Pressure: 30.06"   Gusts: NA
Location:  47.3203°N, 121.982°W
Report Text: KRNT 262053Z 17004KT 10SM FEW039 OVC050 16/11 A3006 RMK AO2 SLP185 60000 T01610111 56019
Loading
Personal Weather Stations






























Interactive Weather Map New forecast layout! Learn more

10-Day Weather Forecast

Advertisements
Track Severe Weather on mobile